createdAt,value
2022-11-13T00:01:17.259Z,8.88
2022-11-13T00:04:04.222Z,8.90
2022-11-13T00:06:56.172Z,9.02
2022-11-13T00:09:45.895Z,8.60
2022-11-13T00:12:36.708Z,8.77
2022-11-13T00:15:24.068Z,9.25
2022-11-13T00:18:13.082Z,9.20
2022-11-13T00:21:05.434Z,9.05
2022-11-13T00:23:53.106Z,9.45
2022-11-13T00:26:40.671Z,8.77
2022-11-13T00:29:27.536Z,9.18
2022-11-13T00:32:14.770Z,9.20
2022-11-13T00:35:03.457Z,9.05
2022-11-13T00:37:50.607Z,10.55
2022-11-13T00:40:37.685Z,10.10
2022-11-13T00:43:24.960Z,9.52
2022-11-13T00:46:12.403Z,9.27
2022-11-13T00:48:59.717Z,9.48
2022-11-13T00:51:48.046Z,8.93
2022-11-13T00:54:35.301Z,9.52
2022-11-13T00:57:22.613Z,8.95
2022-11-13T01:00:11.147Z,9.50
2022-11-13T01:02:59.312Z,9.07
2022-11-13T01:05:47.656Z,8.73
2022-11-13T01:08:35.888Z,8.75
2022-11-13T01:11:25.100Z,9.90
2022-11-13T01:14:12.310Z,9.35
2022-11-13T01:16:59.479Z,9.95
2022-11-13T01:19:46.713Z,9.68
2022-11-13T01:22:33.832Z,9.52
2022-11-13T01:25:22.287Z,9.57
2022-11-13T01:28:09.551Z,9.00
2022-11-13T01:30:56.721Z,9.85
2022-11-13T01:33:43.968Z,9.60
2022-11-13T01:36:31.313Z,9.57
2022-11-13T01:39:18.676Z,9.27
2022-11-13T01:42:07.288Z,9.23
2022-11-13T01:44:56.720Z,9.18
2022-11-13T01:47:43.926Z,9.07
2022-11-13T01:50:31.449Z,9.35
2022-11-13T01:53:18.384Z,8.40
2022-11-13T01:56:06.113Z,8.70
2022-11-13T01:58:58.424Z,8.25
2022-11-13T02:01:46.187Z,8.60
2022-11-13T02:04:34.036Z,8.40
2022-11-13T02:07:23.279Z,8.65
2022-11-13T02:10:10.651Z,8.07
2022-11-13T02:12:57.851Z,8.13
2022-11-13T02:15:47.730Z,7.63
2022-11-13T02:18:36.811Z,8.45
2022-11-13T02:21:32.862Z,8.65
2022-11-13T02:24:28.730Z,7.85
2022-11-13T02:27:22.094Z,7.80
2022-11-13T02:30:16.358Z,8.60
2022-11-13T02:33:18.768Z,8.10
2022-11-13T02:36:07.820Z,8.60
2022-11-13T02:38:57.469Z,8.65
2022-11-13T02:41:46.000Z,8.07
2022-11-13T02:44:33.121Z,8.70
2022-11-13T02:47:20.429Z,8.60
2022-11-13T02:50:10.165Z,8.00
2022-11-13T02:53:01.333Z,7.70
2022-11-13T02:55:48.576Z,8.38
2022-11-13T02:58:36.843Z,7.95
2022-11-13T03:01:24.251Z,7.30
2022-11-13T03:04:11.169Z,7.63
2022-11-13T03:06:58.618Z,7.22
2022-11-13T03:09:46.144Z,7.25
2022-11-13T03:12:33.972Z,7.45
2022-11-13T03:15:22.165Z,8.52
2022-11-13T03:18:09.537Z,7.88
2022-11-13T03:20:56.736Z,8.85
2022-11-13T03:23:45.590Z,8.02
2022-11-13T03:26:32.620Z,8.57
2022-11-13T03:29:19.760Z,8.45
2022-11-13T03:32:08.633Z,7.82
2022-11-13T03:34:55.816Z,8.55
2022-11-13T03:37:42.943Z,8.40
2022-11-13T03:40:30.039Z,8.70
2022-11-13T03:43:17.392Z,9.32
2022-11-13T03:46:04.449Z,8.73
2022-11-13T03:48:53.020Z,8.38
2022-11-13T03:51:40.482Z,8.75
2022-11-13T03:54:27.713Z,8.65
2022-11-13T03:57:14.771Z,8.45
2022-11-13T04:00:01.899Z,9.02
2022-11-13T04:02:49.221Z,9.25
2022-11-13T04:05:37.740Z,9.13
2022-11-13T04:08:24.551Z,8.68
2022-11-13T04:11:13.764Z,8.27
2022-11-13T04:14:01.041Z,8.98
2022-11-13T04:16:48.155Z,9.07
2022-11-13T04:19:35.245Z,9.02
2022-11-13T04:22:23.979Z,9.25
2022-11-13T04:25:11.110Z,9.05
2022-11-13T04:27:58.141Z,9.70
2022-11-13T04:30:45.523Z,8.90
2022-11-13T04:33:32.720Z,9.05
2022-11-13T04:36:19.849Z,8.52
2022-11-13T04:39:08.684Z,8.65
2022-11-13T04:42:13.291Z,8.85
2022-11-13T04:45:00.442Z,9.15
2022-11-13T04:47:48.205Z,9.70
2022-11-13T04:50:35.279Z,9.57
2022-11-13T04:53:22.684Z,9.13
2022-11-13T04:56:11.193Z,9.32
2022-11-13T04:58:58.830Z,9.80
2022-11-13T05:01:46.011Z,10.15
2022-11-13T05:04:33.140Z,9.38
2022-11-13T05:07:20.522Z,9.38
2022-11-13T05:10:07.818Z,9.27
2022-11-13T05:12:58.588Z,9.20
2022-11-13T05:15:45.593Z,9.73
2022-11-13T05:18:35.238Z,9.38
2022-11-13T05:21:22.073Z,9.88
2022-11-13T05:24:11.989Z,10.20
2022-11-13T05:26:59.211Z,9.15
2022-11-13T05:29:47.639Z,10.32
2022-11-13T05:32:34.784Z,10.18
2022-11-13T05:35:21.997Z,9.68
2022-11-13T05:38:09.235Z,10.15
2022-11-13T05:40:56.447Z,10.45
2022-11-13T05:43:44.124Z,9.60
2022-11-13T05:46:32.610Z,10.27
2022-11-13T05:49:20.910Z,10.13
2022-11-13T05:52:08.136Z,10.02
2022-11-13T05:54:55.454Z,9.73
2022-11-13T05:57:42.743Z,10.10
2022-11-13T06:00:29.991Z,9.25
2022-11-13T06:03:18.387Z,9.30
2022-11-13T06:06:06.159Z,10.13
2022-11-13T06:08:54.613Z,9.45
2022-11-13T06:11:41.567Z,8.80
2022-11-13T06:14:28.659Z,9.40
2022-11-13T06:17:15.949Z,10.55
2022-11-13T06:20:05.043Z,10.00
2022-11-13T06:22:52.028Z,9.68
2022-11-13T06:25:39.124Z,9.95
2022-11-13T06:28:26.615Z,9.70
2022-11-13T06:31:16.618Z,8.88
2022-11-13T06:34:05.254Z,9.18
2022-11-13T06:36:53.723Z,9.00
2022-11-13T06:39:40.887Z,9.10
2022-11-13T06:42:28.349Z,9.93
2022-11-13T06:45:15.266Z,9.70
2022-11-13T06:48:02.163Z,8.93
2022-11-13T06:50:49.697Z,10.23
2022-11-13T06:53:38.160Z,9.68
2022-11-13T06:56:25.987Z,9.02
2022-11-13T06:59:13.228Z,8.77
2022-11-13T07:02:00.380Z,9.05
2022-11-13T07:04:47.482Z,9.55
2022-11-13T07:07:34.728Z,9.65
2022-11-13T07:10:23.407Z,9.48
2022-11-13T07:13:11.003Z,9.07
2022-11-13T07:16:15.938Z,8.63
2022-11-13T07:19:04.482Z,8.95
2022-11-13T07:21:51.620Z,9.45
2022-11-13T07:24:38.975Z,9.15
2022-11-13T07:27:27.638Z,8.60
2022-11-13T07:30:15.097Z,8.50
2022-11-13T07:33:03.842Z,8.57
2022-11-13T07:35:50.968Z,8.75
2022-11-13T07:38:38.196Z,9.05
2022-11-13T07:41:25.335Z,8.90
2022-11-13T07:44:27.190Z,8.63
2022-11-13T07:47:20.811Z,9.20
2022-11-13T07:50:11.043Z,8.25
2022-11-13T07:52:59.678Z,8.85
2022-11-13T07:55:46.566Z,8.35
2022-11-13T07:58:33.933Z,8.88
2022-11-13T08:01:22.614Z,9.32
2022-11-13T08:04:09.735Z,9.05
2022-11-13T08:06:57.058Z,8.95
2022-11-13T08:09:44.233Z,9.05
2022-11-13T08:12:31.352Z,9.68
2022-11-13T08:15:18.668Z,9.25
2022-11-13T08:18:07.647Z,10.00
2022-11-13T08:20:54.643Z,10.60
2022-11-13T08:23:42.652Z,9.80
2022-11-13T08:26:29.501Z,10.57
2022-11-13T08:29:16.673Z,9.85
2022-11-13T08:32:04.000Z,9.88
2022-11-13T08:34:52.535Z,9.32
2022-11-13T08:37:39.497Z,9.60
2022-11-13T08:40:26.800Z,9.48
2022-11-13T08:43:14.040Z,9.18
2022-11-13T08:46:01.143Z,9.65
2022-11-13T08:48:48.240Z,9.00
2022-11-13T08:51:36.757Z,9.80
2022-11-13T08:54:24.108Z,8.70
2022-11-13T08:57:11.433Z,8.55
2022-11-13T08:59:59.267Z,9.38
2022-11-13T09:02:46.433Z,8.75
2022-11-13T09:05:33.727Z,8.00
2022-11-13T09:08:21.880Z,8.35
2022-11-13T09:11:09.266Z,8.82
2022-11-13T09:13:56.619Z,8.23
2022-11-13T09:16:43.486Z,8.30
2022-11-13T09:19:30.725Z,8.35
2022-11-13T09:22:18.170Z,8.32
2022-11-13T09:25:07.489Z,7.43
2022-11-13T09:27:55.464Z,7.88
2022-11-13T09:30:42.502Z,8.55
2022-11-13T09:33:29.720Z,8.05
2022-11-13T09:36:17.407Z,8.15
2022-11-13T09:39:05.626Z,7.88
2022-11-13T09:41:58.582Z,7.35
2022-11-13T09:44:50.032Z,7.25
2022-11-13T09:47:41.862Z,6.50
2022-11-13T09:50:32.641Z,7.10
2022-11-13T09:53:20.065Z,7.30
2022-11-13T09:56:20.280Z,6.68
2022-11-13T09:59:19.927Z,6.70
2022-11-13T10:02:18.910Z,6.57
2022-11-13T10:05:13.592Z,6.60
2022-11-13T10:08:08.331Z,6.32
2022-11-13T10:11:05.619Z,6.03
2022-11-13T10:13:55.881Z,6.45
2022-11-13T10:16:49.439Z,5.63
2022-11-13T10:19:43.256Z,5.78
2022-11-13T10:22:36.468Z,5.68
2022-11-13T10:25:26.801Z,5.68
2022-11-13T10:28:43.659Z,5.88
2022-11-13T10:31:24.761Z,5.55
2022-11-13T10:34:13.988Z,5.43
2022-11-13T10:37:22.000Z,5.32
2022-11-13T10:40:09.679Z,5.53
2022-11-13T10:43:06.643Z,5.00
2022-11-13T10:45:58.873Z,4.70
2022-11-13T10:48:46.126Z,5.30
2022-11-13T10:51:35.387Z,5.35
2022-11-13T10:54:25.523Z,5.57
2022-11-13T10:57:30.040Z,5.07
2022-11-13T11:00:25.760Z,5.20
2022-11-13T11:03:18.656Z,4.85
2022-11-13T11:06:06.557Z,4.88
2022-11-13T11:08:55.008Z,4.68
2022-11-13T11:11:59.732Z,4.63
2022-11-13T11:15:07.463Z,4.43
2022-11-13T11:18:00.311Z,4.38
2022-11-13T11:20:51.574Z,4.35
2022-11-13T11:23:44.181Z,4.28
2022-11-13T11:26:36.757Z,4.25
2022-11-13T11:29:29.402Z,4.15
2022-11-13T11:32:23.979Z,3.83
2022-11-13T11:35:17.021Z,3.88
2022-11-13T11:38:12.628Z,3.70
2022-11-13T11:41:08.885Z,3.95
2022-11-13T11:44:06.366Z,3.80
2022-11-13T11:46:53.416Z,5.00
2022-11-13T11:49:40.855Z,5.57
2022-11-13T11:52:48.065Z,6.40
2022-11-13T11:55:52.358Z,5.82
2022-11-13T11:59:04.972Z,5.88
2022-11-13T12:02:16.991Z,4.45
2022-11-13T12:05:20.237Z,3.80
2022-11-13T12:08:19.884Z,3.80
2022-11-13T12:11:15.461Z,3.03
2022-11-13T12:14:14.863Z,4.18
2022-11-13T12:17:28.369Z,3.60
2022-11-13T12:20:27.015Z,3.83
2022-11-13T12:23:27.664Z,3.08
2022-11-13T12:26:24.489Z,3.47
2022-11-13T12:29:29.053Z,2.92
2022-11-13T12:32:40.871Z,3.30
2022-11-13T12:35:30.013Z,3.20
2022-11-13T12:38:26.897Z,3.35
2022-11-13T12:41:23.410Z,3.00
2022-11-13T12:44:25.204Z,3.08
2022-11-13T12:47:13.001Z,2.67
2022-11-13T12:50:02.682Z,2.25
2022-11-13T12:53:00.308Z,2.67
2022-11-13T12:55:59.977Z,3.35
2022-11-13T12:59:23.684Z,2.20
2022-11-13T13:02:26.587Z,2.22
2022-11-13T13:05:35.815Z,2.17
2022-11-13T13:08:35.284Z,1.90
2022-11-13T13:11:31.014Z,2.03
2022-11-13T13:14:56.937Z,2.28
2022-11-13T13:17:45.234Z,2.25
2022-11-13T13:20:38.243Z,2.17
2022-11-13T13:23:29.262Z,2.30
2022-11-13T13:26:20.163Z,2.45
2022-11-13T13:29:18.630Z,2.13
2022-11-13T13:32:20.201Z,2.03
2022-11-13T13:35:16.496Z,2.20
2022-11-13T13:38:13.501Z,2.50
2022-11-13T13:41:14.212Z,2.22
2022-11-13T13:44:23.033Z,2.30
2022-11-13T13:47:20.057Z,2.45
2022-11-13T13:50:16.282Z,2.13
2022-11-13T13:53:03.960Z,2.40
2022-11-13T13:55:53.461Z,2.83
2022-11-13T13:58:41.238Z,2.20
2022-11-13T14:01:30.635Z,2.55
2022-11-13T14:04:20.583Z,2.30
2022-11-13T14:07:21.735Z,2.47
2022-11-13T14:10:15.918Z,2.45
2022-11-13T14:13:03.909Z,2.60
2022-11-13T14:16:01.918Z,2.70
2022-11-13T14:18:49.293Z,2.22
2022-11-13T14:21:36.669Z,2.85
2022-11-13T14:24:28.781Z,3.45
2022-11-13T14:27:19.416Z,5.75
2022-11-13T14:30:21.171Z,5.50
2022-11-13T14:33:10.772Z,5.07
2022-11-13T14:36:00.016Z,5.20
2022-11-13T14:38:52.027Z,4.13
2022-11-13T14:41:47.549Z,3.78
2022-11-13T14:44:36.042Z,3.47
2022-11-13T14:47:25.595Z,2.80
2022-11-13T14:50:24.956Z,2.95
2022-11-13T14:53:12.401Z,3.03
2022-11-13T14:56:02.441Z,2.90
2022-11-13T14:58:51.254Z,2.92
2022-11-13T15:01:38.436Z,2.67
2022-11-13T15:04:26.213Z,2.85
2022-11-13T15:07:25.398Z,2.90
2022-11-13T15:10:15.762Z,3.13
2022-11-13T15:13:03.577Z,3.25
2022-11-13T15:15:52.170Z,3.00
2022-11-13T15:18:39.606Z,2.80
2022-11-13T15:21:26.900Z,2.95
2022-11-13T15:24:14.622Z,3.20
2022-11-13T15:27:02.959Z,3.40
2022-11-13T15:29:50.273Z,2.63
2022-11-13T15:32:39.248Z,3.22
2022-11-13T15:35:26.622Z,3.40
2022-11-13T15:38:14.088Z,3.65
2022-11-13T15:41:01.272Z,3.22
2022-11-13T15:43:50.812Z,4.53
2022-11-13T15:46:37.587Z,6.13
2022-11-13T15:49:27.576Z,5.50
2022-11-13T15:52:14.698Z,6.68
2022-11-13T15:55:03.572Z,6.05
2022-11-13T15:57:50.619Z,7.22
2022-11-13T16:00:42.129Z,6.68
2022-11-13T16:03:29.526Z,6.28
2022-11-13T16:06:21.399Z,5.97
2022-11-13T16:09:14.469Z,5.95
2022-11-13T16:12:01.722Z,5.18
2022-11-13T16:14:48.968Z,4.97
2022-11-13T16:17:42.058Z,4.28
2022-11-13T16:20:29.316Z,3.85
2022-11-13T16:23:18.527Z,4.60
2022-11-13T16:26:06.649Z,4.63
2022-11-13T16:32:02.265Z,4.70
2022-11-13T16:34:50.125Z,4.00
2022-11-13T16:37:37.174Z,3.58
2022-11-13T16:40:27.375Z,3.63
2022-11-13T16:43:14.642Z,3.95
2022-11-13T16:46:02.658Z,3.85
2022-11-13T16:48:49.759Z,3.80
2022-11-13T16:51:37.084Z,4.00
2022-11-13T16:54:24.442Z,4.35
2022-11-13T16:57:14.580Z,4.88
2022-11-13T17:00:01.572Z,4.80
2022-11-13T17:02:50.962Z,4.60
2022-11-13T17:05:37.868Z,4.35
2022-11-13T17:08:25.236Z,5.90
2022-11-13T17:11:14.076Z,5.45
2022-11-13T17:14:03.807Z,5.40
2022-11-13T17:16:51.116Z,6.05
2022-11-13T17:19:43.793Z,6.03
2022-11-13T17:22:31.528Z,5.80
2022-11-13T17:25:20.662Z,6.55
2022-11-13T17:28:07.868Z,5.90
2022-11-13T17:31:02.950Z,5.75
2022-11-13T17:33:53.736Z,6.13
2022-11-13T17:36:40.876Z,6.63
2022-11-13T17:39:28.196Z,6.68
2022-11-13T17:42:15.483Z,6.55
2022-11-13T17:45:02.971Z,6.68
2022-11-13T17:47:51.529Z,7.15
2022-11-13T17:50:38.395Z,7.65
2022-11-13T17:53:26.004Z,8.93
2022-11-13T17:56:13.736Z,10.15
2022-11-13T17:59:00.983Z,10.43
2022-11-13T18:01:48.962Z,10.80
2022-11-13T18:04:37.660Z,11.10
2022-11-13T18:07:25.111Z,10.85
2022-11-13T18:10:12.739Z,9.38
2022-11-13T18:13:00.558Z,9.52
2022-11-13T18:15:47.587Z,9.90
2022-11-13T18:18:35.581Z,9.02
2022-11-13T18:21:26.613Z,8.10
2022-11-13T18:24:16.483Z,7.70
2022-11-13T18:27:06.230Z,8.10
2022-11-13T18:29:53.658Z,6.97
2022-11-13T18:32:41.428Z,7.40
2022-11-13T18:35:29.675Z,7.65
2022-11-13T18:38:18.556Z,7.18
2022-11-13T18:41:08.466Z,8.48
2022-11-13T18:43:56.077Z,7.63
2022-11-13T18:46:43.719Z,7.95
2022-11-13T18:49:31.811Z,8.57
2022-11-13T18:52:19.302Z,7.95
2022-11-13T18:55:09.738Z,7.45
2022-11-13T18:57:57.297Z,7.43
2022-11-13T19:00:44.787Z,7.05
2022-11-13T19:03:32.287Z,7.90
2022-11-13T19:06:22.232Z,9.55
2022-11-13T19:09:14.228Z,8.88
2022-11-13T19:12:02.938Z,7.90
2022-11-13T19:14:50.552Z,6.93
2022-11-13T19:17:37.773Z,7.07
2022-11-13T19:20:24.906Z,7.47
2022-11-13T19:23:12.163Z,7.60
2022-11-13T19:25:59.798Z,7.45
2022-11-13T19:28:50.399Z,7.35
2022-11-13T19:31:37.918Z,7.13
2022-11-13T19:34:25.188Z,6.65
2022-11-13T19:37:17.749Z,6.95
2022-11-13T19:40:07.124Z,5.85
2022-11-13T19:42:54.529Z,5.95
2022-11-13T19:45:43.600Z,6.10
2022-11-13T19:48:30.698Z,6.65
2022-11-13T19:51:21.082Z,6.65
2022-11-13T19:54:08.895Z,6.47
2022-11-13T19:56:56.183Z,6.80
2022-11-13T19:59:43.385Z,6.80
2022-11-13T20:02:31.713Z,7.00
2022-11-13T20:05:18.886Z,7.70
2022-11-13T20:08:06.265Z,6.88
2022-11-13T20:10:53.477Z,6.80
2022-11-13T20:13:41.640Z,6.90
2022-11-13T20:16:30.129Z,7.55
2022-11-13T20:19:18.627Z,7.10
2022-11-13T20:22:05.433Z,7.55
2022-11-13T20:24:52.708Z,7.50
2022-11-13T20:27:41.879Z,8.02
2022-11-13T20:30:33.195Z,9.00
2022-11-13T20:33:22.807Z,7.70
2022-11-13T20:36:11.643Z,8.35
2022-11-13T20:38:58.948Z,8.13
2022-11-13T20:41:46.209Z,8.82
2022-11-13T20:44:33.053Z,9.00
2022-11-13T20:47:20.554Z,8.52
2022-11-13T20:50:08.502Z,8.40
2022-11-13T20:52:57.031Z,8.93
2022-11-13T20:55:44.131Z,8.80
2022-11-13T20:58:32.034Z,8.88
2022-11-13T21:01:21.367Z,8.40
2022-11-13T21:04:08.311Z,8.02
2022-11-13T21:06:55.427Z,8.48
2022-11-13T21:09:48.713Z,7.75
2022-11-13T21:12:37.249Z,8.60
2022-11-13T21:15:24.466Z,8.07
2022-11-13T21:18:12.116Z,8.38
2022-11-13T21:21:05.503Z,8.68
2022-11-13T21:23:53.104Z,9.07
2022-11-13T21:26:41.528Z,8.98
2022-11-13T21:29:28.685Z,8.70
2022-11-13T21:32:15.980Z,9.52
2022-11-13T21:35:03.084Z,9.43
2022-11-13T21:37:50.228Z,8.60
2022-11-13T21:40:37.536Z,9.60
2022-11-13T21:43:26.249Z,9.05
2022-11-13T21:46:14.319Z,9.13
2022-11-13T21:49:03.098Z,8.85
2022-11-13T21:51:50.191Z,9.57
2022-11-13T21:54:37.388Z,9.02
2022-11-13T21:57:24.723Z,9.45
2022-11-13T22:00:15.338Z,9.50
2022-11-13T22:03:02.638Z,10.30
2022-11-13T22:05:49.869Z,8.95
2022-11-13T22:08:36.977Z,9.60
2022-11-13T22:11:24.601Z,9.52
2022-11-13T22:14:11.960Z,9.02
2022-11-13T22:17:00.164Z,9.50
2022-11-13T22:19:47.345Z,9.25
2022-11-13T22:22:34.563Z,8.90
2022-11-13T22:25:21.796Z,8.20
2022-11-13T22:28:08.911Z,7.95
2022-11-13T22:30:56.139Z,7.53
2022-11-13T22:33:48.282Z,7.45
2022-11-13T22:36:38.239Z,7.13
2022-11-13T22:39:25.469Z,7.57
2022-11-13T22:42:12.671Z,6.78
2022-11-13T22:44:59.775Z,7.80
2022-11-13T22:47:47.068Z,7.35
2022-11-13T22:50:37.339Z,6.95
2022-11-13T22:53:24.415Z,6.45
2022-11-13T22:56:15.486Z,6.65
2022-11-13T22:59:05.326Z,5.80
2022-11-13T23:01:52.185Z,5.88
2022-11-13T23:04:39.403Z,6.00
2022-11-13T23:07:28.084Z,5.57
2022-11-13T23:10:15.597Z,5.50
2022-11-13T23:13:02.535Z,6.13
2022-11-13T23:15:49.768Z,5.72
2022-11-13T23:18:36.938Z,5.97
2022-11-13T23:21:26.135Z,6.03
2022-11-13T23:24:14.930Z,6.13
2022-11-13T23:27:02.201Z,6.95
2022-11-13T23:29:50.378Z,5.97
2022-11-13T23:32:37.600Z,5.78
2022-11-13T23:35:24.959Z,5.00
2022-11-13T23:38:12.563Z,5.05
2022-11-13T23:41:01.887Z,5.13
2022-11-13T23:46:56.836Z,5.72
2022-11-13T23:49:43.816Z,5.40
2022-11-13T23:52:31.129Z,4.97
2022-11-13T23:55:19.274Z,5.43
2022-11-13T23:58:10.590Z,5.35
